Time;durP1;ratioP1;P1;durP2;ratioP2;P2;SDS_P1;SDS_P2;PMS_P1;PMS_P2;Temp;Humidity;BMP_temperature;BMP_pressure;BME280_temperature;BME280_humidity;BME280_pressure;Samples;Min_cycle;Max_cycle;Signal;HPM_P1;HPM_P2
2022/12/04 00:00:32;;;;;;;25.57;14.20;;;;;;;2.16;92.37;98568.28;1720372;83;21044;-75
2022/12/04 00:03:00;;;;;;;25.70;13.95;;;;;;;2.19;92.44;98559.59;1716573;83;21016;-74
2022/12/04 00:05:27;;;;;;;21.77;12.78;;;;;;;2.18;92.25;98566.58;1720152;83;20990;-74
2022/12/04 00:07:54;;;;;;;20.55;12.25;;;;;;;2.12;92.01;98567.81;1712195;83;21001;-74
2022/12/04 00:10:20;;;;;;;24.75;13.08;;;;;;;2.07;91.80;98566.84;1706670;82;21082;-74
2022/12/04 00:12:46;;;;;;;23.32;13.00;;;;;;;2.02;92.08;98568.09;1701781;83;21028;-74
2022/12/04 00:15:14;;;;;;;25.20;13.15;;;;;;;2.02;92.28;98568.09;1693132;85;20986;-74
2022/12/04 00:17:47;;;;;;;26.07;14.03;;;;;;;1.98;92.01;98575.44;1717849;83;20996;-75
2022/12/04 00:20:14;;;;;;;25.68;13.95;;;;;;;1.84;91.32;98575.25;1717725;83;20998;-76
2022/12/04 00:22:40;;;;;;;27.80;13.48;;;;;;;1.78;92.14;98573.41;1706449;83;21029;-75
2022/12/04 00:25:07;;;;;;;25.17;13.53;;;;;;;1.68;91.62;98576.33;1698675;83;21044;-75
2022/12/04 00:27:34;;;;;;;24.95;12.73;;;;;;;1.61;91.68;98580.12;1701171;83;21368;-75
2022/12/04 00:30:00;;;;;;;27.13;14.28;;;;;;;1.60;91.89;98571.40;1701852;83;20984;-76
2022/12/04 00:32:27;;;;;;;26.87;13.78;;;;;;;1.56;91.57;98570.89;1714209;83;20988;-75
2022/12/04 00:34:54;;;;;;;29.00;13.35;;;;;;;1.55;92.27;98571.76;1703915;83;21024;-76
2022/12/04 00:37:21;;;;;;;29.05;13.72;;;;;;;1.56;92.57;98574.81;1706168;83;20988;-76
2022/12/04 00:39:47;;;;;;;27.98;14.10;;;;;;;1.54;92.15;98577.84;1702981;83;21000;-75
2022/12/04 00:42:14;;;;;;;25.43;13.35;;;;;;;1.52;92.45;98573.89;1699868;83;21008;-76
2022/12/04 00:44:40;;;;;;;24.63;13.58;;;;;;;1.56;92.62;98577.42;1698085;83;21476;-76
2022/12/04 00:47:07;;;;;;;24.02;12.98;;;;;;;1.53;92.42;98582.17;1696231;83;21033;-76
2022/12/04 00:49:33;;;;;;;24.60;12.78;;;;;;;1.54;92.43;98586.98;1706125;83;21027;-76
2022/12/04 00:52:00;;;;;;;25.40;13.58;;;;;;;1.56;92.33;98582.65;1701899;83;21004;-76
2022/12/04 00:54:26;;;;;;;24.80;12.65;;;;;;;1.58;92.55;98575.29;1696084;83;21060;-76
2022/12/04 00:56:52;;;;;;;23.42;12.33;;;;;;;1.63;92.56;98574.48;1696199;84;20993;-76
2022/12/04 00:59:19;;;;;;;24.63;13.38;;;;;;;1.65;92.26;98574.96;1696185;84;20992;-76
2022/12/04 01:01:45;;;;;;;22.73;11.97;;;;;;;1.67;92.37;98580.22;1696861;84;20984;-76
2022/12/04 01:04:12;;;;;;;23.25;12.60;;;;;;;1.57;92.16;98573.95;1700216;83;21079;-76
2022/12/04 01:06:38;;;;;;;23.40;13.20;;;;;;;1.60;92.30;98571.40;1700146;83;20984;-76
2022/12/04 01:09:05;;;;;;;24.05;13.08;;;;;;;1.65;92.42;98574.96;1702341;83;20993;-76
2022/12/04 01:11:32;;;;;;;23.15;13.03;;;;;;;1.64;91.85;98582.77;1713001;83;21034;-76
2022/12/04 01:14:00;;;;;;;28.35;13.40;;;;;;;1.62;92.13;98581.88;1712071;83;21113;-77
2022/12/04 01:16:34;;;;;;;23.18;11.83;;;;;;;1.63;92.71;98577.99;1715902;83;20997;-76
2022/12/04 01:19:02;;;;;;;19.37;11.57;;;;;;;1.64;92.71;98576.23;1712025;84;21034;-74
2022/12/04 01:21:29;;;;;;;19.60;10.78;;;;;;;1.68;92.63;98581.97;1711343;83;21058;-75
2022/12/04 01:23:56;;;;;;;18.85;10.30;;;;;;;1.69;92.42;98575.47;1720492;83;21010;-75
2022/12/04 01:26:24;;;;;;;19.82;10.18;;;;;;;1.73;92.83;98568.55;1693061;83;20994;-76
2022/12/04 01:28:50;;;;;;;19.10;11.80;;;;;;;1.80;92.75;98572.14;1721933;83;21089;-76
2022/12/04 01:31:19;;;;;;;20.40;11.85;;;;;;;1.83;92.47;98561.73;1721615;83;20986;-76
2022/12/04 01:33:48;;;;;;;21.52;11.83;;;;;;;1.84;92.37;98559.57;1695759;83;21064;-75
2022/12/04 01:36:25;;;;;;;20.08;11.28;;;;;;;1.87;92.59;98554.36;1703389;83;20973;-75
2022/12/04 01:38:53;;;;;;;20.30;12.07;;;;;;;1.93;92.58;98562.32;1716322;82;21036;-76
2022/12/04 01:41:26;;;;;;;20.37;11.65;;;;;;;1.98;92.68;98558.03;1712534;83;20958;-74
2022/12/04 01:44:13;;;;;;;22.45;12.13;;;;;;;2.01;92.27;98557.61;1716357;83;21443;-77
2022/12/04 01:46:43;;;;;;;23.92;12.82;;;;;;;1.98;91.97;98557.14;1715815;83;21416;-76
2022/12/04 01:49:17;;;;;;;22.00;11.93;;;;;;;1.95;92.00;98553.20;1688622;85;21028;-76
2022/12/04 01:51:49;;;;;;;;;;;;;;;1.97;92.21;98556.70;1689082;85;21017;-76
2022/12/04 01:54:27;;;;;;;21.35;11.15;;;;;;;1.96;92.03;98547.96;1683649;85;20185;-76
2022/12/04 01:57:08;;;;;;;21.80;12.03;;;;;;;1.92;91.80;98543.99;1688077;85;21402;-76
2022/12/04 01:59:46;;;;;;;21.42;11.43;;;;;;;1.86;91.61;98547.83;1688252;83;21000;-76
2022/12/04 02:02:18;;;;;;;21.07;11.83;;;;;;;1.81;91.62;98548.64;1686253;85;21024;-75
2022/12/04 02:04:45;;;;;;;18.98;10.58;;;;;;;1.80;91.86;98544.69;1685495;85;20976;-75
2022/12/04 02:07:12;;;;;;;20.52;11.12;;;;;;;1.77;91.75;98540.30;1690509;84;21014;-75
2022/12/04 02:09:40;;;;;;;19.70;10.10;;;;;;;1.76;91.73;98535.94;1687572;85;20960;-75
2022/12/04 02:12:31;;;;;;;18.75;11.00;;;;;;;1.75;91.72;98542.44;1689866;84;21023;-74
2022/12/04 02:15:09;;;;;;;22.13;11.65;;;;;;;1.74;91.65;98548.08;1684909;85;20991;-75
2022/12/04 02:18:02;;;;;;;22.15;12.15;;;;;;;1.70;91.43;98546.27;1687973;84;21034;-75
2022/12/04 02:20:40;;;;;;;18.62;11.57;;;;;;;1.65;91.40;98547.94;1688180;85;21414;-75
2022/12/04 02:23:43;;;;;;;22.22;12.47;;;;;;;1.61;91.70;98540.94;1685958;85;21082;-75
2022/12/04 02:26:37;;;;;;;19.23;10.95;;;;;;;1.61;91.64;98533.10;1689410;84;20991;-74
2022/12/04 02:29:37;;;;;;;21.68;12.30;;;;;;;1.60;91.89;98539.16;1689691;85;21006;-75
2022/12/04 02:32:18;;;;;;;21.40;11.78;;;;;;;1.60;91.74;98544.38;1615383;86;21024;-75
2022/12/04 02:34:59;;;;;;;21.95;11.73;;;;;;;1.57;91.73;98545.22;1621770;87;21183;-75
2022/12/04 02:37:30;;;;;;;20.85;10.93;;;;;;;1.55;91.46;98548.25;1686387;82;20982;-74
2022/12/04 02:40:14;;;;;;;20.88;11.50;;;;;;;1.54;91.66;98550.41;1723768;82;21631;-75
2022/12/04 02:43:04;;;;;;;21.50;10.68;;;;;;;1.55;91.73;98545.63;1719163;82;21021;-74
2022/12/04 02:45:39;;;;;;;22.62;11.57;;;;;;;1.53;91.75;98543.44;1698069;82;21102;-74
2022/12/04 02:48:09;;;;;;;21.55;10.98;;;;;;;1.58;91.77;98541.77;1728511;82;20999;-74
2022/12/04 02:50:39;;;;;;;21.95;11.88;;;;;;;1.59;91.67;98542.22;1719291;82;21030;-75
2022/12/04 02:53:21;;;;;;;21.33;11.18;;;;;;;1.62;91.54;98544.00;1741134;82;21011;-74
2022/12/04 02:55:52;;;;;;;21.05;11.85;;;;;;;1.54;91.13;98553.88;1674783;82;21028;-75
2022/12/04 02:58:27;;;;;;;18.95;10.93;;;;;;;1.58;91.54;98548.30;1721563;82;21004;-75
2022/12/04 03:00:57;;;;;;;18.35;10.20;;;;;;;1.63;91.61;98542.72;1739693;82;20982;-75
2022/12/04 03:03:28;;;;;;;22.10;11.48;;;;;;;1.68;91.73;98546.69;1721966;82;21037;-75
2022/12/04 03:06:08;;;;;;;21.62;11.65;;;;;;;1.70;91.52;98543.66;1740314;82;20944;-76
2022/12/04 03:08:39;;;;;;;20.00;10.38;;;;;;;1.68;91.49;98534.52;1739777;82;20989;-75
2022/12/04 03:11:06;;;;;;;24.20;13.03;;;;;;;1.69;91.62;98527.12;1719344;82;21007;-74
2022/12/04 03:13:50;;;;;;;27.35;13.35;;;;;;;1.67;91.49;98523.59;1741212;82;20995;-74
2022/12/04 03:16:28;;;;;;;25.43;13.83;;;;;;;1.68;91.57;98529.70;1730483;82;21018;-74
2022/12/04 03:19:00;;;;;;;24.90;13.58;;;;;;;1.68;91.29;98535.83;1727910;82;21453;-75
2022/12/04 03:21:31;;;;;;;24.92;12.03;;;;;;;1.69;91.92;98540.19;1739885;82;21054;-74
2022/12/04 03:24:16;;;;;;;22.67;12.33;;;;;;;1.76;91.76;98542.47;1707283;83;20997;-75
2022/12/04 03:26:47;;;;;;;24.80;12.73;;;;;;;1.79;91.59;98540.33;1700447;83;21001;-75
2022/12/04 03:29:28;;;;;;;23.55;12.33;;;;;;;1.70;91.35;98532.80;1665967;85;21013;-76
2022/12/04 03:32:15;;;;;;;23.83;12.45;;;;;;;1.62;91.26;98537.02;1665408;85;21009;-76
2022/12/04 03:35:05;;;;;;;22.20;12.55;;;;;;;1.62;91.57;98534.85;1666280;85;21060;-76
2022/12/04 03:37:52;;;;;;;21.80;11.80;;;;;;;1.62;91.68;98540.08;1697489;83;20993;-76
2022/12/04 03:41:02;;;;;;;23.50;12.33;;;;;;;1.58;91.46;98544.38;1669269;83;20981;-76
2022/12/04 03:43:49;;;;;;;23.25;12.47;;;;;;;1.53;91.16;98548.21;1665836;85;21044;-76
2022/12/04 03:46:35;;;;;;;23.77;11.90;;;;;;;1.41;91.08;98544.98;1697291;84;21043;-76
2022/12/04 03:49:27;;;;;;;22.52;11.97;;;;;;;1.34;90.95;98539.22;1697546;83;21004;-78
2022/12/04 03:52:18;;;;;;;23.02;11.63;;;;;;;1.25;90.90;98536.00;1697385;83;20997;-75
2022/12/04 03:54:50;;;;;;;25.55;12.80;;;;;;;1.21;91.00;98536.84;1697288;83;21485;-76
2022/12/04 03:57:25;;;;;;;26.30;13.45;;;;;;;1.13;91.34;98533.20;1694065;83;21052;-76
2022/12/04 03:59:57;;;;;;;21.82;12.03;;;;;;;1.05;91.37;98523.94;1713370;83;21019;-76
2022/12/04 04:02:29;;;;;;;24.70;12.68;;;;;;;1.01;91.31;98528.65;1697687;83;21000;-76
2022/12/04 04:04:59;;;;;;;24.75;12.07;;;;;;;0.95;91.64;98529.85;1665398;85;21019;-76
2022/12/04 04:07:31;;;;;;;25.08;12.95;;;;;;;0.96;91.43;98518.14;1666081;85;21454;-76
2022/12/04 04:10:03;;;;;;;23.00;12.23;;;;;;;1.01;91.58;98526.93;1664363;85;21069;-76
2022/12/04 04:12:35;;;;;;;21.57;11.20;;;;;;;1.02;91.93;98528.68;1697171;83;21402;-76
2022/12/04 04:26:33;;;;;;;20.50;10.72;;;;;;;0.98;92.09;98534.70;1680070;85;21370;-76
2022/12/04 04:29:00;;;;;;;19.60;9.90;;;;;;;0.94;92.12;98537.20;1685077;83;21034;-76
2022/12/04 04:31:53;;;;;;;17.40;10.48;;;;;;;0.94;92.29;98533.29;1686057;84;21013;-76
2022/12/04 04:34:49;;;;;;;19.62;11.03;;;;;;;0.90;92.08;98534.97;1628473;87;21379;-76
2022/12/04 04:37:33;;;;;;;20.55;10.25;;;;;;;0.82;92.52;98530.06;1689439;85;21040;-75
2022/12/04 04:40:20;;;;;;;21.05;9.85;;;;;;;0.81;92.44;98536.11;1689534;84;21013;-75
2022/12/04 04:42:52;;;;;;;20.35;10.30;;;;;;;0.75;92.29;98532.98;1662837;85;21020;-75
2022/12/04 04:45:27;;;;;;;19.17;9.73;;;;;;;0.73;92.29;98538.58;1689221;85;20993;-75
2022/12/04 04:48:20;;;;;;;18.73;10.55;;;;;;;0.69;92.19;98543.28;1689468;85;21012;-75
2022/12/04 04:50:47;;;;;;;16.93;9.25;;;;;;;0.64;92.08;98540.19;1690646;85;21024;-76
2022/12/04 04:53:19;;;;;;;20.25;9.85;;;;;;;0.50;92.46;98533.38;1689500;85;20996;-75
2022/12/04 04:55:47;;;;;;;24.63;11.35;;;;;;;0.43;92.29;98544.55;1689265;84;20989;-76
2022/12/04 04:58:18;;;;;;;20.37;10.53;;;;;;;0.42;92.41;98547.13;1696246;84;21434;-76
2022/12/04 05:01:03;;;;;;;20.12;9.93;;;;;;;0.43;92.33;98551.48;1665354;85;21097;-76
2022/12/04 05:03:32;;;;;;;20.57;10.08;;;;;;;0.39;92.63;98547.53;1690421;83;21065;-75
2022/12/04 05:05:58;;;;;;;24.57;11.40;;;;;;;0.39;93.31;98543.62;1689507;85;20977;-75
2022/12/04 05:08:27;;;;;;;17.73;9.73;;;;;;;0.42;92.82;98544.52;1689323;85;21057;-75
2022/12/04 05:10:54;;;;;;;18.50;9.50;;;;;;;0.44;92.64;98524.14;1689396;85;21044;-75
2022/12/04 05:13:21;;;;;;;18.82;10.68;;;;;;;0.46;92.89;98531.55;1689450;85;20989;-75
2022/12/04 05:16:08;;;;;;;19.70;9.55;;;;;;;0.42;92.79;98532.37;1689590;84;21013;-75
2022/12/04 05:18:35;;;;;;;17.70;9.48;;;;;;;0.40;92.42;98534.05;1689599;85;20980;-76
2022/12/04 05:21:16;;;;;;;19.62;9.90;;;;;;;0.44;92.62;98528.05;1689346;84;21361;-76
2022/12/04 05:23:43;;;;;;;17.90;9.78;;;;;;;0.46;92.46;98532.00;1696193;83;21004;-76
2022/12/04 05:26:11;;;;;;;16.73;9.60;;;;;;;0.53;92.98;98528.64;1697893;83;21415;-76
2022/12/04 05:28:39;;;;;;;22.10;10.35;;;;;;;0.59;92.91;98526.17;1707619;82;21036;-75
2022/12/04 05:31:06;;;;;;;18.57;10.15;;;;;;;0.65;92.78;98530.20;1700696;83;21048;-75
2022/12/04 05:33:32;;;;;;;16.42;8.95;;;;;;;0.70;92.90;98539.84;1698018;83;21003;-76
2022/12/04 05:36:07;;;;;;;12.80;7.72;;;;;;;0.77;92.82;98537.78;1702295;82;21012;-76
2022/12/04 05:38:33;;;;;;;;;;;;;;;0.81;92.68;98535.70;1703937;82;21398;-76
2022/12/04 05:41:01;;;;;;;13.83;8.00;;;;;;;0.75;92.26;98537.75;1698039;83;20131;-76
2022/12/04 05:43:29;;;;;;;16.73;8.85;;;;;;;0.71;92.17;98538.98;1697166;83;20977;-76
2022/12/04 05:46:09;;;;;;;15.18;8.85;;;;;;;0.67;92.20;98532.84;1697660;83;21031;-75
2022/12/04 05:48:36;;;;;;;15.45;8.48;;;;;;;0.62;92.03;98533.18;1697320;83;21059;-76
2022/12/04 05:51:08;;;;;;;15.88;9.10;;;;;;;0.60;92.23;98526.62;1697632;83;20980;-76
2022/12/04 05:53:35;;;;;;;17.32;9.08;;;;;;;0.65;92.38;98535.41;1697530;83;20996;-76
2022/12/04 05:56:07;;;;;;;17.37;9.33;;;;;;;0.69;92.37;98526.32;1697398;83;21089;-76
2022/12/04 05:58:36;;;;;;;15.75;7.95;;;;;;;0.75;92.16;98526.45;1718248;82;20971;-76
2022/12/04 06:01:19;;;;;;;14.03;8.15;;;;;;;0.70;91.64;98536.79;1697562;83;21016;-76
2022/12/04 06:03:46;;;;;;;15.50;8.07;;;;;;;0.63;91.39;98550.58;1692213;83;21004;-75
2022/12/04 06:06:21;;;;;;;13.53;8.20;;;;;;;0.56;91.28;98548.28;1697517;83;21062;-76
2022/12/04 06:08:55;;;;;;;14.55;8.30;;;;;;;0.51;91.08;98544.25;1696917;83;21021;-76
2022/12/04 06:11:26;;;;;;;14.73;8.38;;;;;;;0.44;91.18;98542.80;1697448;83;21147;-76
2022/12/04 06:13:55;;;;;;;15.03;8.90;;;;;;;0.42;91.20;98541.91;1697529;83;21039;-76
2022/12/04 06:16:26;;;;;;;15.80;7.58;;;;;;;0.38;91.02;98549.66;1697552;83;21480;-76
2022/12/04 06:18:58;;;;;;;13.88;7.90;;;;;;;0.33;91.35;98543.47;1697426;83;21004;-76
2022/12/04 06:21:29;;;;;;;13.30;7.72;;;;;;;0.37;91.47;98551.81;1698319;83;20992;-76
2022/12/04 06:23:56;;;;;;;14.28;7.62;;;;;;;0.39;91.71;98558.38;1700650;83;21023;-76
2022/12/04 06:26:23;;;;;;;13.65;8.00;;;;;;;0.43;91.88;98565.41;1698335;83;21109;-76
2022/12/04 06:28:55;;;;;;;15.55;8.25;;;;;;;0.45;91.42;98563.70;1702657;82;21004;-78
2022/12/04 06:31:24;;;;;;;13.05;8.23;;;;;;;0.45;91.39;98560.23;1718131;82;21047;-75
2022/12/04 06:33:54;;;;;;;13.50;7.40;;;;;;;0.38;91.17;98563.14;1697876;83;20996;-75
2022/12/04 06:36:22;;;;;;;13.98;7.90;;;;;;;0.37;91.22;98564.85;1698496;83;21390;-75
2022/12/04 06:38:50;;;;;;;16.07;8.63;;;;;;;0.43;91.58;98561.91;1697302;83;20968;-75
2022/12/04 06:41:20;;;;;;;14.75;8.18;;;;;;;0.47;91.33;98559.83;1697514;83;21458;-76
2022/12/04 06:43:47;;;;;;;14.90;8.70;;;;;;;0.50;91.47;98554.23;1695568;83;21442;-76
2022/12/04 06:46:17;;;;;;;16.93;8.68;;;;;;;0.54;91.46;98557.78;1699265;83;21016;-77
2022/12/04 06:48:44;;;;;;;15.35;8.48;;;;;;;0.63;91.80;98559.72;1695349;83;21061;-76
2022/12/04 06:51:22;;;;;;;14.38;8.15;;;;;;;0.67;91.59;98559.34;1696207;83;21047;-77
2022/12/04 06:53:49;;;;;;;16.65;8.18;;;;;;;0.79;91.97;98550.45;1695208;83;20996;-76
2022/12/04 06:56:23;;;;;;;15.00;8.43;;;;;;;0.85;91.40;98566.63;1708205;83;21067;-76
2022/12/04 06:58:54;;;;;;;14.98;8.08;;;;;;;0.86;91.43;98561.86;1696084;82;20965;-76
2022/12/04 07:01:28;;;;;;;16.10;8.10;;;;;;;0.94;91.79;98568.11;1700903;82;20965;-76
2022/12/04 07:03:56;;;;;;;13.65;8.15;;;;;;;1.07;92.03;98566.59;1705956;83;21043;-76
2022/12/04 07:06:33;;;;;;;12.30;7.80;;;;;;;1.13;91.53;98554.95;1695250;83;21015;-75
2022/12/04 07:09:08;;;;;;;14.68;8.20;;;;;;;1.13;91.40;98548.42;1706553;83;21036;-75
2022/12/04 07:11:38;;;;;;;14.15;9.73;;;;;;;1.15;91.56;98562.40;1665987;83;38732;-75
2022/12/04 07:14:06;;;;;;;14.75;8.53;;;;;;;1.33;90.51;98557.47;1709555;83;21419;-76
2022/12/04 07:16:32;;;;;;;13.00;7.80;;;;;;;1.25;90.44;98558.20;1709524;83;21012;-76
2022/12/04 07:18:59;;;;;;;13.22;8.00;;;;;;;1.24;90.31;98561.67;1709608;83;20995;-75
2022/12/04 07:21:29;;;;;;;13.95;7.75;;;;;;;1.20;90.44;98561.61;1696498;83;21405;-76
2022/12/04 07:23:59;;;;;;;14.78;8.30;;;;;;;1.22;90.82;98558.17;1713000;82;20961;-76
2022/12/04 07:26:27;;;;;;;15.15;8.40;;;;;;;1.25;90.38;98553.42;1684356;83;21020;-76
2022/12/04 07:28:54;;;;;;;13.72;7.75;;;;;;;1.31;90.89;98557.44;1687408;84;21016;-76
2022/12/04 07:31:23;;;;;;;16.65;9.35;;;;;;;1.33;90.58;98557.47;1696611;84;21052;-76
2022/12/04 07:33:52;;;;;;;14.87;8.63;;;;;;;1.38;90.76;98559.73;1698565;83;20992;-76
2022/12/04 07:36:21;;;;;;;13.53;8.38;;;;;;;1.41;90.72;98561.95;1703660;83;21024;-75
2022/12/04 07:38:49;;;;;;;14.85;8.15;;;;;;;1.44;90.61;98565.04;1693361;84;21000;-76
2022/12/04 07:41:16;;;;;;;14.93;7.95;;;;;;;1.45;90.03;98561.57;1683192;85;21064;-76
2022/12/04 07:43:44;;;;;;;14.83;7.80;;;;;;;1.43;90.22;98557.66;1684354;83;20993;-76
2022/12/04 07:46:18;;;;;;;14.87;8.30;;;;;;;1.48;90.35;98554.20;1683355;85;20958;-76
2022/12/04 07:48:44;;;;;;;;;;;;;;;1.55;90.69;98546.52;1685653;85;20997;-76
2022/12/04 07:51:15;;;;;;;15.78;8.05;;;;;;;1.60;90.28;98526.09;1683528;85;20091;-76
2022/12/04 07:53:42;;;;;;;13.98;7.95;;;;;;;1.63;90.78;98540.11;1684501;83;21052;-76
2022/12/04 07:56:11;;;;;;;17.10;8.85;;;;;;;1.72;90.91;98540.66;1683160;85;20982;-76
2022/12/04 07:58:38;;;;;;;14.58;8.98;;;;;;;1.81;90.71;98547.33;1683297;84;21008;-76
2022/12/04 08:01:18;;;;;;;15.70;8.70;;;;;;;1.90;90.83;98540.05;1686789;84;20972;-76
2022/12/04 08:03:50;;;;;;;14.47;8.33;;;;;;;2.03;91.07;98545.45;1706577;83;21012;-75
2022/12/04 08:06:20;;;;;;;14.38;6.83;;;;;;;2.18;91.12;98526.46;1667384;85;21500;-75
2022/12/04 08:08:48;;;;;;;11.75;6.22;;;;;;;2.30;91.09;98533.17;1683195;85;21041;-76
2022/12/04 08:11:20;;;;;;;13.40;5.87;;;;;;;2.40;91.13;98534.59;1693183;83;20980;-76
2022/12/04 08:13:46;;;;;;;12.85;6.55;;;;;;;2.50;91.00;98531.22;1694458;83;21076;-75
2022/12/04 08:16:14;;;;;;;13.70;6.25;;;;;;;2.56;90.83;98526.47;1686949;83;20984;-76
2022/12/04 08:18:45;;;;;;;12.50;6.80;;;;;;;2.61;90.59;98523.05;1702950;83;20996;-76
2022/12/04 08:21:19;;;;;;;11.95;6.65;;;;;;;2.66;90.48;98525.73;1684719;83;21025;-76
2022/12/04 08:23:49;;;;;;;13.95;6.53;;;;;;;2.71;90.48;98531.90;1709506;82;21019;-76
2022/12/04 08:26:18;;;;;;;14.30;7.47;;;;;;;2.73;89.93;98527.96;1698673;82;22195;-77
2022/12/04 08:28:45;;;;;;;16.70;8.40;;;;;;;2.71;89.91;98531.90;1697580;83;21016;-77
2022/12/04 08:31:19;;;;;;;19.90;10.03;;;;;;;2.73;90.13;98520.11;1709268;83;21481;-78
2022/12/04 08:33:49;;;;;;;19.73;9.70;;;;;;;2.82;90.31;98528.06;1692605;83;21020;-78
2022/12/04 08:36:18;;;;;;;23.00;10.20;;;;;;;2.93;90.30;98525.56;1697605;83;21012;-77
2022/12/04 08:38:47;;;;;;;25.15;10.95;;;;;;;3.09;90.15;98518.73;1697482;83;20989;-78
2022/12/04 08:41:17;;;;;;;18.98;10.18;;;;;;;3.26;89.85;98516.68;1703725;83;20986;-78
2022/12/04 08:43:44;;;;;;;24.47;12.90;;;;;;;3.42;88.98;98516.38;1699500;83;21071;-78
2022/12/04 08:46:14;;;;;;;20.48;9.93;;;;;;;3.59;89.14;98516.50;1697376;83;21020;-78
2022/12/04 08:48:41;;;;;;;17.07;9.13;;;;;;;3.68;87.68;98507.39;1694000;83;21016;-79
2022/12/04 08:51:12;;;;;;;16.23;8.75;;;;;;;3.74;87.63;98509.16;1714450;83;21011;-75
2022/12/04 08:53:39;;;;;;;18.32;9.93;;;;;;;3.79;87.29;98506.58;1709886;83;21019;-76
2022/12/04 08:56:06;;;;;;;20.08;10.35;;;;;;;3.80;87.33;98495.22;1718532;83;21008;-76
2022/12/04 08:58:33;;;;;;;14.07;7.90;;;;;;;3.84;87.82;98495.69;1696705;82;21690;-77
2022/12/04 09:01:05;;;;;;;18.37;9.23;;;;;;;3.87;87.13;98486.95;1707542;83;21011;-77
2022/12/04 09:03:33;;;;;;;15.05;7.92;;;;;;;3.89;87.20;98491.34;1710214;83;21016;-76
2022/12/04 09:06:01;;;;;;;17.65;8.10;;;;;;;3.92;86.93;98495.30;1695467;83;20984;-76
2022/12/04 09:08:28;;;;;;;17.10;8.70;;;;;;;3.93;86.47;98492.23;1695509;83;21442;-77
2022/12/04 09:10:54;;;;;;;14.90;7.20;;;;;;;3.94;86.54;98480.44;1710063;83;20960;-76
2022/12/04 09:13:21;;;;;;;14.05;7.35;;;;;;;3.95;86.65;98473.46;1702136;83;21044;-76
2022/12/04 09:15:47;;;;;;;17.60;7.37;;;;;;;3.93;86.57;98476.49;1697462;83;21095;-76
2022/12/04 09:18:13;;;;;;;13.18;7.25;;;;;;;3.90;86.44;98473.42;1711518;83;21003;-77
2022/12/04 09:20:40;;;;;;;15.83;7.65;;;;;;;3.88;85.92;98479.53;1705475;83;20988;-76
2022/12/04 09:23:07;;;;;;;17.87;8.53;;;;;;;3.85;86.31;98475.59;1695226;83;21056;-76
2022/12/04 09:25:37;;;;;;;14.15;7.33;;;;;;;3.81;86.31;98482.55;1703117;83;21487;-76
2022/12/04 09:28:04;;;;;;;13.93;7.70;;;;;;;3.78;86.70;98478.16;1697499;83;21072;-76
2022/12/04 09:30:30;;;;;;;13.95;7.30;;;;;;;3.77;86.75;98484.28;1727964;82;21039;-76
2022/12/04 09:32:57;;;;;;;15.20;8.05;;;;;;;3.75;86.87;98489.97;1708727;83;21040;-76
2022/12/04 09:35:24;;;;;;;15.10;7.67;;;;;;;3.79;86.88;98487.77;1697529;83;21409;-75
2022/12/04 09:37:50;;;;;;;15.70;8.00;;;;;;;3.83;86.56;98486.93;1698068;83;21012;-74
2022/12/04 09:40:28;;;;;;;13.45;7.50;;;;;;;3.90;86.61;98478.66;1701856;83;21040;-73
2022/12/04 09:43:26;;;;;;;16.20;7.67;;;;;;;4.00;86.77;98481.34;1697400;83;21438;-74
2022/12/04 09:45:58;;;;;;;15.35;7.85;;;;;;;4.13;86.26;98479.22;1694111;83;21027;-74
2022/12/04 09:48:32;;;;;;;14.75;7.42;;;;;;;4.23;86.34;98478.80;1698275;83;21088;-74
2022/12/04 09:51:00;;;;;;;15.20;7.62;;;;;;;4.29;85.95;98485.83;1697235;83;21021;-74
2022/12/04 09:53:33;;;;;;;14.98;7.42;;;;;;;4.36;85.70;98488.91;1697196;83;21020;-75
2022/12/04 09:56:04;;;;;;;15.58;8.35;;;;;;;4.46;84.62;98476.28;1697318;83;21045;-77
2022/12/04 09:59:09;;;;;;;17.32;9.00;;;;;;;4.59;85.28;98464.06;1702429;82;21071;-76
2022/12/04 10:02:03;;;;;;;19.25;9.85;;;;;;;4.77;85.23;98454.44;1697541;83;20972;-77
2022/12/04 10:04:30;;;;;;;19.73;11.05;;;;;;;4.85;84.11;98455.34;1696718;83;21040;-76
2022/12/04 10:07:15;;;;;;;16.07;9.23;;;;;;;4.89;84.16;98463.66;1695543;83;21413;-76
2022/12/04 10:09:53;;;;;;;17.40;9.55;;;;;;;4.94;84.10;98468.05;1706364;83;21035;-77
2022/12/04 10:12:34;;;;;;;18.00;9.05;;;;;;;4.95;82.12;98475.94;1705199;82;21008;-77
2022/12/04 10:15:21;;;;;;;19.60;9.93;;;;;;;4.94;82.42;98464.97;1698632;83;21505;-75
2022/12/04 10:18:18;;;;;;;16.75;8.60;;;;;;;4.99;82.25;98461.91;1695710;83;21036;-76
2022/12/04 10:21:18;;;;;;;34.13;29.85;;;;;;;5.09;83.13;98461.48;1695364;83;20997;-75
2022/12/04 10:24:16;;;;;;;17.50;8.78;;;;;;;5.23;81.74;98448.79;1725680;82;20992;-75
2022/12/04 10:26:46;;;;;;;19.25;10.70;;;;;;;5.35;80.64;98438.25;1703816;83;21016;-76
2022/12/04 10:29:22;;;;;;;22.93;10.53;;;;;;;5.36;80.78;98433.88;1706152;83;21118;-76
2022/12/04 10:31:52;;;;;;;21.55;11.38;;;;;;;5.32;80.53;98433.44;1697557;83;20986;-76
2022/12/04 10:34:29;;;;;;;20.68;11.40;;;;;;;5.25;80.88;98436.51;1704968;83;20984;-74
2022/12/04 10:37:03;;;;;;;18.07;9.78;;;;;;;5.21;81.34;98430.81;1675175;84;20952;-75
2022/12/04 10:39:35;;;;;;;19.02;10.40;;;;;;;5.18;80.81;98430.84;1704706;83;21036;-75
2022/12/04 10:42:32;;;;;;;18.80;9.23;;;;;;;5.15;80.94;98428.63;1704288;83;21015;-75
2022/12/04 10:44:58;;;;;;;19.48;10.18;;;;;;;5.02;80.63;98421.20;1704869;83;21425;-75
2022/12/04 10:47:25;;;;;;;18.07;9.20;;;;;;;4.91;80.80;98418.13;1705008;83;21015;-75
2022/12/04 10:50:02;;;;;;;18.42;9.78;;;;;;;4.85;81.33;98422.94;1705091;83;21489;-75
2022/12/04 10:52:29;;;;;;;19.30;9.93;;;;;;;4.75;81.35;98422.95;1687513;83;20995;-75
2022/12/04 10:54:58;;;;;;;19.00;9.95;;;;;;;4.64;81.82;98418.56;1704980;83;21004;-75
2022/12/04 10:57:39;;;;;;;19.45;9.00;;;;;;;4.67;82.35;98405.00;1704603;83;21016;-75
2022/12/04 11:00:28;;;;;;;16.67;8.98;;;;;;;4.80;82.67;98395.38;1711197;82;21016;-75
2022/12/04 11:03:00;;;;;;;16.05;8.63;;;;;;;5.11;81.71;98392.72;1689916;83;21016;-75
2022/12/04 11:05:47;;;;;;;18.48;8.88;;;;;;;5.51;81.76;98392.21;1704130;83;21079;-75
2022/12/04 11:08:27;;;;;;;16.05;8.83;;;;;;;6.12;80.79;98389.38;1703865;83;21071;-75
2022/12/04 11:11:01;;;;;;;13.70;7.65;;;;;;;6.93;76.31;98376.53;1705035;83;21068;-75
2022/12/04 11:13:28;;;;;;;16.62;9.15;;;;;;;7.98;76.47;98370.16;1704314;83;21438;-75
2022/12/04 11:15:57;;;;;;;15.32;8.63;;;;;;;8.55;69.79;98368.49;1704997;83;20980;-75
2022/12/04 11:18:30;;;;;;;15.08;7.50;;;;;;;8.70;70.84;98370.04;1704847;83;21035;-76
2022/12/04 11:21:08;;;;;;;13.78;8.18;;;;;;;9.23;68.26;98362.08;1705022;83;21028;-74
2022/12/04 11:23:46;;;;;;;14.98;8.70;;;;;;;9.53;66.91;98364.19;1703708;83;21012;-73
2022/12/04 11:26:14;;;;;;;12.73;8.48;;;;;;;9.56;68.95;98361.50;1677973;85;21076;-74
2022/12/04 11:28:49;;;;;;;12.80;8.43;;;;;;;9.48;66.92;98355.47;1693569;84;20988;-74
2022/12/04 11:31:20;;;;;;;14.35;8.60;;;;;;;9.42;67.62;98352.95;1690403;83;21478;-74
2022/12/04 11:33:51;;;;;;;12.33;7.45;;;;;;;9.15;67.88;98351.23;1687453;85;21000;-75
2022/12/04 11:36:29;;;;;;;11.20;6.97;;;;;;;8.79;68.16;98346.55;1687537;85;20966;-75
2022/12/04 11:39:14;;;;;;;14.83;8.28;;;;;;;8.29;67.88;98344.20;1670875;84;20946;-75
2022/12/04 11:41:41;;;;;;;13.48;7.75;;;;;;;7.89;68.84;98353.54;1687551;84;21009;-75
2022/12/04 11:44:27;;;;;;;12.25;7.90;;;;;;;7.58;69.70;98356.56;1660400;85;21120;-75
2022/12/04 11:47:00;;;;;;;14.38;8.85;;;;;;;7.42;70.67;98355.86;1687384;85;21501;-75
2022/12/04 11:49:30;;;;;;;14.70;10.32;;;;;;;7.30;71.17;98358.17;1687571;85;21020;-75
2022/12/04 11:52:20;;;;;;;15.95;9.53;;;;;;;7.16;70.57;98349.53;1654347;85;20993;-75
2022/12/04 11:55:13;;;;;;;16.65;10.08;;;;;;;7.02;70.37;98349.22;1636186;88;21036;-75
2022/12/04 11:58:18;;;;;;;14.30;8.85;;;;;;;6.99;71.00;98343.53;1648000;86;20981;-75
2022/12/04 12:00:48;;;;;;;;;;;;;;;7.08;71.67;98340.39;1674328;85;21017;-75
2022/12/04 12:03:26;;;;;;;11.73;7.53;;;;;;;7.28;71.14;98349.86;1636377;86;20339;-75
2022/12/04 12:06:16;;;;;;;12.85;8.03;;;;;;;7.49;70.68;98335.13;1625714;87;21021;-75
2022/12/04 12:08:54;;;;;;;13.28;7.03;;;;;;;7.77;70.50;98338.73;1636368;87;21044;-75
2022/12/04 12:11:38;;;;;;;11.05;6.92;;;;;;;7.97;68.47;98324.87;1629032;88;21005;-75